Flight Track Log - Related Links

Times and Time Zones

All times are in EDT time to prevent confusion due to time zone crossing. See the AVN10 flight status page for this flight to view local times or setup timezone preferences in your user account.

Time Position Orientation Groundspeed Altitude Reporting Facility
EDT Latitude Longitude Course Direction KTS MPH feet Rate Location/Type
Wed 12:43:00 AM -18.2680 167.7063 226° Southwest  Level FlightAware Approximate
Wed 12:44:00 AM -18.3311 167.6379 226° Southwest  Level FlightAware Approximate
Wed 12:45:00 AM -18.3941 167.5694 226° Southwest  Level FlightAware Approximate
Wed 12:46:00 AM -18.4571 167.5009 226° Southwest  Level FlightAware Approximate
Wed 12:47:00 AM -18.5201 167.4324 226° Southwest  Level FlightAware Approximate
Wed 12:48:00 AM -18.5831 167.3638 226° Southwest  Level FlightAware Approximate
Wed 12:49:00 AM -18.6460 167.2951 226° Southwest  Level FlightAware Approximate
Wed 12:50:00 AM -18.7089 167.2264 226° Southwest  Level FlightAware Approximate
Wed 12:51:00 AM -18.7718 167.1576 226° Southwest  Level FlightAware Approximate
Wed 12:52:00 AM -18.8347 167.0888 226° Southwest  Level FlightAware Approximate
Wed 12:53:00 AM -18.8975 167.0199 226° Southwest  Level FlightAware Approximate
Wed 12:54:00 AM -18.9604 166.9510 226° Southwest  Level FlightAware Approximate
Wed 12:55:00 AM -19.0231 166.8820 226° Southwest  Level FlightAware Approximate
Wed 12:56:00 AM -19.0859 166.8130 226° Southwest  Level FlightAware Approximate
Wed 12:57:00 AM -19.1486 166.7440 226° Southwest  Level FlightAware Approximate
Wed 12:58:00 AM -19.2113 166.6748 226° Southwest  Level FlightAware Approximate
Wed 12:59:00 AM -19.2740 166.6056 226° Southwest  Level FlightAware Approximate
Wed 01:00:00 AM -19.3367 166.5364 226° Southwest  Level FlightAware Approximate
Wed 01:01:00 AM -19.3993 166.4671 226° Southwest  Level FlightAware Approximate
Wed 01:02:00 AM -19.4620 166.3978 226° Southwest  Level FlightAware Approximate
Wed 01:03:00 AM -19.5245 166.3284 226° Southwest  Level FlightAware Approximate
Wed 01:04:00 AM -19.5871 166.2589 226° Southwest  Level FlightAware Approximate
Wed 01:05:00 AM -19.6496 166.1894 226° Southwest  Level FlightAware Approximate
Wed 01:06:00 AM -19.7121 166.1199 226° Southwest  Level FlightAware Approximate
Wed 01:07:00 AM -19.7746 166.0503 226° Southwest  Level FlightAware Approximate
Wed 01:08:00 AM -19.8370 165.9806 226° Southwest  Level FlightAware Approximate
Wed 01:09:00 AM -19.8995 165.9109 226° Southwest  Level FlightAware Approximate
Wed 01:10:00 AM -19.9619 165.8411 226° Southwest  Level FlightAware Approximate
Wed 01:11:00 AM -20.0242 165.7713 226° Southwest  Level FlightAware Approximate
Wed 01:12:00 AM -20.0937 165.7094 212° Southwest  Level Estimated
Wed 01:13:00 AM -20.1654 165.6507 218° Southwest  Level FlightAware Approximate
Wed 01:14:00 AM -20.2372 165.5918 218° Southwest  Level FlightAware Approximate
Wed 01:15:00 AM -20.3089 165.5330 218° Southwest  Level FlightAware Approximate
Wed 01:16:00 AM -20.3806 165.4741 218° Southwest  Level FlightAware Approximate
Wed 01:17:00 AM -20.4524 165.4151 218° Southwest  Level FlightAware Approximate
Wed 01:18:00 AM -20.5240 165.3561 218° Southwest  Level FlightAware Approximate
Wed 01:19:00 AM -20.5957 165.2970 218° Southwest  Level FlightAware Approximate
Wed 01:20:00 AM -20.6673 165.2379 218° Southwest  Level FlightAware Approximate
Wed 01:21:00 AM -20.7390 165.1786 218° Southwest  Level FlightAware Approximate
Wed 01:22:00 AM -20.8106 165.1194 218° Southwest  Level FlightAware Approximate
Wed 01:23:00 AM -20.8821 165.0601 218° Southwest  Level FlightAware Approximate
Wed 01:24:00 AM -20.9537 165.0007 218° Southwest  Level FlightAware Approximate
Wed 01:25:00 AM -21.0252 164.9413 218° Southwest  Level FlightAware Approximate
Wed 01:26:00 AM -21.0968 164.8818 218° Southwest  Level FlightAware Approximate
Wed 01:26:01 AM -22.1093 163.3841 219° Southwest 32,000  Level Aus ATC (Calculated)
Wed 01:26:05 AM -22.1093 163.3841 219° Southwest 32,000 28 Level Aus ATC (Calculated)
Wed 01:28:00 AM -22.2358 163.2850 216° Southwest  Level FlightAware Approximate
Wed 01:29:00 AM -22.3018 163.2332 216° Southwest  Level FlightAware Approximate
Wed 01:29:05 AM -22.3450 163.1075 219° Southwest 32,000  Level Aus ATC (Calculated)
Wed 01:31:00 AM -22.4719 163.0087 216° Southwest  Level FlightAware Approximate
Wed 01:31:00 AM -22.5227 162.8979 218° Southwest 32,000  Level Aus ATC (Calculated)
Wed 01:32:00 AM -22.5891 162.8466 215° Southwest  Level FlightAware Approximate
Wed 01:33:00 AM -22.6555 162.7953 216° Southwest  Level FlightAware Approximate
Wed 01:33:05 AM -22.7189 162.6655 218° Southwest 32,000  Level Aus ATC (Calculated)
Wed 01:35:00 AM -22.8472 162.5671 215° Southwest  Level FlightAware Approximate
Wed 01:36:00 AM -22.9141 162.5157 215° Southwest  Level FlightAware Approximate
Wed 01:37:00 AM -22.9809 162.4643 215° Southwest  Level FlightAware Approximate
Wed 01:38:00 AM -23.0478 162.4128 215° Southwest  Level FlightAware Approximate
Wed 01:39:00 AM -23.1147 162.3613 215° Southwest  Level FlightAware Approximate
Wed 01:40:00 AM -23.1815 162.3097 215° Southwest  Level FlightAware Approximate
Wed 01:40:53 AM -23.3685 161.8882 217° Southwest 32,000  Level Aus ATC (Calculated)
Wed 01:41:00 AM -23.2483 162.2581 215° Southwest  Level FlightAware Approximate
Wed 01:41:49 AM -23.4071 161.8416 216° Southwest 32,000  Level Aus ATC (Calculated)
Wed 01:42:00 AM -23.4441 161.8321 214° Southwest  Level FlightAware Approximate
Wed 01:42:23 AM -23.4445 161.7965 216° Southwest 32,000  Level Aus ATC (Calculated)
Wed 01:44:00 AM -23.5542 161.7154 214° Southwest  Level FlightAware Approximate
Wed 01:44:14 AM -23.5894 161.6212 216° Southwest 32,000  Level Aus ATC (Calculated)
Wed 01:46:00 AM -23.7096 161.5331 214° Southwest  Level FlightAware Approximate
Wed 01:47:00 AM -23.7776 161.4831 214° Southwest  Level FlightAware Approximate
Wed 01:48:00 AM -23.8456 161.4331 214° Southwest  Level FlightAware Approximate
Wed 01:49:00 AM -23.9136 161.3831 214° Southwest  Level FlightAware Approximate
Wed 01:50:00 AM -23.9815 161.3330 214° Southwest  Level FlightAware Approximate
Wed 01:51:00 AM -24.0495 161.2828 214° Southwest  Level FlightAware Approximate
Wed 01:52:00 AM -24.1174 161.2326 214° Southwest  Level FlightAware Approximate
Wed 01:52:21 AM -24.2836 160.7723 213° Southwest 32,000  Level Aus ATC (Calculated)
Wed 01:54:00 AM -24.3978 160.6928 212° Southwest  Level FlightAware Approximate
Wed 01:55:00 AM -24.4670 160.6445 212° Southwest  Level FlightAware Approximate
Wed 01:56:00 AM -24.5361 160.5962 212° Southwest  Level FlightAware Approximate
Wed 01:57:00 AM -24.6053 160.5479 212° Southwest  Level FlightAware Approximate
Wed 01:58:00 AM -24.6744 160.4995 212° Southwest  Level FlightAware Approximate
Wed 01:58:18 AM -24.8436 160.2169 212° Southwest 36,000  Level Aus ATC (Calculated)
Wed 02:00:00 AM -24.9623 160.1364 212° Southwest  Level FlightAware Approximate
Wed 02:01:00 AM -25.0320 160.0890 212° Southwest  Level FlightAware Approximate
Wed 02:02:00 AM -25.1018 160.0415 212° Southwest  Level FlightAware Approximate
Wed 02:03:00 AM -25.1716 159.9940 212° Southwest  Level FlightAware Approximate
Wed 02:04:00 AM -25.2413 159.9464 212° Southwest  Level FlightAware Approximate
Wed 02:05:00 AM -25.3110 159.8988 212° Southwest  Level FlightAware Approximate
Wed 02:06:00 AM -25.3807 159.8511 212° Southwest  Level FlightAware Approximate
Wed 02:06:01 AM -25.6789 159.6462 212° Southwest 36,000  Level Aus ATC (Calculated)
Wed 02:08:00 AM -25.8169 159.5510 212° Southwest  Level FlightAware Approximate
Wed 02:08:46 AM -25.9731 159.4429 212° Southwest 36,000  Level Aus ATC (Calculated)
Wed 02:09:00 AM -25.8865 159.5029 212° Southwest  Level FlightAware Approximate
Wed 02:09:55 AM -26.1201 159.3409 212° Southwest 36,000  Level Aus ATC (Calculated)
Wed 02:10:00 AM -26.0581 159.3840 212° Southwest  Level FlightAware Approximate
Wed 02:11:00 AM -26.1947 159.2890 212° Southwest  Level FlightAware Approximate
Wed 02:12:00 AM -26.2635 159.2410 212° Southwest  Level FlightAware Approximate
Wed 02:13:00 AM -26.3323 159.1930 212° Southwest  Level FlightAware Approximate
Wed 02:14:00 AM -26.4012 159.1449 212° Southwest  Level FlightAware Approximate
Wed 02:15:00 AM -26.4699 159.0968 212° Southwest  Level FlightAware Approximate
Wed 02:16:00 AM -26.5387 159.0486 212° Southwest  Level FlightAware Approximate
Wed 02:17:00 AM -26.6075 159.0004 212° Southwest  Level FlightAware Approximate
Wed 02:18:00 AM -26.6762 158.9521 212° Southwest  Level FlightAware Approximate
Wed 02:19:00 AM -26.7450 158.9037 212° Southwest  Level FlightAware Approximate
Wed 02:20:00 AM -26.8137 158.8553 212° Southwest  Level FlightAware Approximate
Wed 02:21:00 AM -26.8824 158.8068 212° Southwest  Level FlightAware Approximate
Wed 02:22:00 AM -26.9511 158.7583 212° Southwest  Level FlightAware Approximate
Wed 02:23:00 AM -27.0197 158.7097 212° Southwest  Level FlightAware Approximate
Wed 02:24:00 AM -27.0884 158.6610 212° Southwest  Level FlightAware Approximate
Wed 02:25:00 AM -27.1570 158.6123 212° Southwest  Level FlightAware Approximate
Wed 02:26:00 AM -27.2256 158.5635 212° Southwest  Level FlightAware Approximate
Wed 02:27:00 AM -27.2942 158.5146 212° Southwest  Level FlightAware Approximate
Wed 02:28:00 AM -27.3628 158.4657 212° Southwest  Level FlightAware Approximate
Wed 02:28:28 AM -28.1212 157.9200 33° Northeast 36,000  Level Aus ATC (Calculated)
Wed 02:29:33 AM -28.2184 157.8494 33° Northeast 36,000 -219 Level Aus ATC (Calculated)
Wed 02:30:12 AM -28.2670 157.8141 33° Northeast 36,000 -248 Level Aus ATC (Calculated)
Wed 02:32:00 AM -28.3900 157.7244 213° Southwest  Level FlightAware Approximate
Wed 02:32:18 AM -28.5098 157.6368 33° Northeast 36,000  Level Aus ATC (Calculated)
Wed 02:32:33 AM -28.5584 157.6012 33° Northeast 36,000 -376 Level Aus ATC (Calculated)
Wed 02:34:00 AM -28.6573 157.5286 213° Southwest  Level FlightAware Approximate
Wed 02:35:00 AM -28.7255 157.4785 213° Southwest  Level FlightAware Approximate
Wed 02:36:00 AM -28.7937 157.4283 213° Southwest  Level FlightAware Approximate
Wed 02:37:00 AM -28.8619 157.3780 213° Southwest  Level FlightAware Approximate
Wed 02:37:37 AM -27.7045 158.2200 213° Southwest 440 506 34,000  Level Aus ATC (RADAR)
Wed 02:38:27 AM -27.7850 158.1591 214° Southwest 417 480 34,000  Level Aus ATC (RADAR)
Wed 02:39:01 AM -27.8403 158.1169 214° Southwest 413 475 34,000  Level Aus ATC (RADAR)
Wed 02:39:51 AM -27.9290 158.0576 211° Southwest 429 494 34,000  Level Aus ATC (RADAR)
Wed 02:40:11 AM -27.9606 158.0329 215° Southwest 428 493 34,000  Level Aus ATC (RADAR)
Wed 02:40:41 AM -28.0115 157.9966 212° Southwest 428 493 34,000  Level Aus ATC (RADAR)
Wed 02:41:36 AM -28.1070 157.9295 212° Southwest 437 503 34,000  Level Aus ATC (RADAR)
Wed 02:42:21 AM -28.1830 157.8744 213° Southwest 433 498 34,000  Level Aus ATC (RADAR)
Wed 02:43:11 AM -28.2681 157.8128 213° Southwest 435 501 34,000  Level Aus ATC (RADAR)
Wed 02:43:51 AM -28.3337 157.7635 213° Southwest 429 494 34,000  Level Aus ATC (RADAR)
Wed 02:44:36 AM -28.4106 157.7084 212° Southwest 432 497 34,000  Level Aus ATC (RADAR)
Wed 02:45:01 AM -28.4524 157.6779 213° Southwest 431 496 34,000  Level Aus ATC (RADAR)
Wed 02:45:41 AM -28.5191 157.6289 213° Southwest 430 495 34,000  Level Aus ATC (RADAR)
Wed 02:46:26 AM -28.5910 157.5744 214° Southwest 421 484 34,000  Level Aus ATC (RADAR)
Wed 02:47:25 AM -28.6927 157.5016 212° Southwest 427 491 34,000  Level Aus ATC (RADAR)
Wed 02:48:05 AM -28.7592 157.4531 213° Southwest 426 490 34,000  Level Aus ATC (RADAR)
Wed 02:48:40 AM -28.8151 157.4109 213° Southwest 421 484 34,000  Level Aus ATC (RADAR)
Wed 02:49:25 AM -28.8885 157.3566 213° Southwest 420 483 34,000  Level Aus ATC (RADAR)
Wed 02:49:49 AM -28.9250 157.3310 212° Southwest 421 484 34,000  Level FlightAware ADS-B
Wed 02:49:50 AM -28.9312 157.3264 212° Southwest 423 487 34,000  Level Aus ATC (RADAR)
Wed 02:50:27 AM -28.9790 157.2930 212° Southwest 421 484 34,000  Level FlightAware ADS-B
Wed 02:50:56 AM -29.0310 157.2530 214° Southwest 411 473 34,000  Level FlightAware ADS-B
Wed 02:51:32 AM -29.0950 157.2050 213° Southwest 409 471 34,000  Level FlightAware ADS-B
Wed 02:52:16 AM -29.1540 157.1620 212° Southwest 409 471 34,000  Level FlightAware ADS-B
Wed 02:52:48 AM -29.2140 157.1180 213° Southwest 408 470 34,000  Level FlightAware ADS-B
Wed 02:53:25 AM -29.2820 157.0780 207° Southwest 411 473 34,000  Level FlightAware ADS-B
Wed 02:53:57 AM -29.3390 157.0470 205° Southwest 411 473 34,000 -92 Level FlightAware ADS-B
Wed 02:54:30 AM -29.4000 157.0137 205° Southwest 423 487 33,900  Descending Aus ATC (RADAR)
Wed 02:54:34 AM -29.4010 157.0130 205° Southwest 411 473 34,000  Climbing FlightAware ADS-B
Wed 02:55:10 AM -29.4675 156.9761 205° Southwest 416 479 33,900  Descending Aus ATC (RADAR)
Wed 02:55:21 AM -29.4690 156.9750 205° Southwest 411 473 34,000  Climbing FlightAware ADS-B
Wed 02:55:54 AM -29.5453 156.9329 205° Southwest 415 478 33,900  Descending Aus ATC (RADAR)
Wed 02:55:57 AM -29.5210 156.9460 205° Southwest 411 473 34,000 154 Climbing FlightAware ADS-B
Wed 02:56:33 AM -29.5740 156.9160 206° Southwest 411 473 34,000  Level FlightAware ADS-B
Wed 02:57:09 AM -29.6260 156.8870 206° Southwest 411 473 34,000  Level FlightAware ADS-B
Wed 02:57:45 AM -29.6780 156.8580 206° Southwest 411 473 34,000  Level FlightAware ADS-B
Wed 02:58:21 AM -29.7300 156.8280 207° Southwest 411 473 34,000  Level FlightAware ADS-B
Wed 02:58:57 AM -29.7830 156.7990 205° Southwest 411 473 34,000  Level FlightAware ADS-B
Wed 02:59:33 AM -29.8350 156.7690 207° Southwest 411 473 34,000  Level FlightAware ADS-B
Wed 03:00:09 AM -29.8870 156.7400 206° Southwest 411 473 34,000  Level FlightAware ADS-B
Wed 03:00:45 AM -29.9400 156.7100 206° Southwest 411 473 34,000  Level FlightAware ADS-B
Wed 03:01:22 AM -29.9930 156.6800 206° Southwest 411 473 34,000  Level FlightAware ADS-B
Wed 03:01:58 AM -30.0460 156.6510 205° Southwest 411 473 34,000  Level FlightAware ADS-B
Wed 03:02:34 AM -30.0980 156.6210 207° Southwest 411 473 34,000  Level FlightAware ADS-B
Wed 03:03:10 AM -30.1500 156.5920 206° Southwest 411 473 34,000  Level FlightAware ADS-B
Wed 03:03:46 AM -30.2020 156.5620 206° Southwest 411 473 34,000  Level FlightAware ADS-B
Wed 03:04:22 AM -30.2550 156.5330 205° Southwest 411 473 34,000 -83 Level FlightAware ADS-B
Wed 03:04:58 AM -30.4849 156.4073 205° Southwest 412 474 33,900 -85 Descending Aus ATC (RADAR)
Wed 03:05:33 AM -30.5441 156.3737 206° Southwest 409 471 33,900 75 Level Aus ATC (RADAR)
Wed 03:06:18 AM -30.6211 156.3302 206° Southwest 411 473 34,000 86 Climbing Aus ATC (RADAR)
Wed 03:06:43 AM -30.6633 156.3053 207° Southwest 411 473 34,000  Level Aus ATC (RADAR)
Wed 03:07:38 AM -30.7570 156.2523 206° Southwest 410 472 34,000 -71 Level Aus ATC (RADAR)
Wed 03:08:08 AM -30.8079 156.2233 206° Southwest 409 471 33,900  Descending Aus ATC (RADAR)
Wed 03:08:33 AM -30.8504 156.1994 206° Southwest 409 471 34,000 100 Climbing Aus ATC (RADAR)
Wed 03:09:08 AM -30.9096 156.1656 206° Southwest 408 470 34,000  Level Aus ATC (RADAR)
Wed 03:09:53 AM -30.9864 156.1218 206° Southwest 410 472 34,000  Level Aus ATC (RADAR)
Wed 03:10:28 AM -31.0460 156.0876 206° Southwest 411 473 34,000  Level Aus ATC (RADAR)
Wed 03:11:13 AM -31.1229 156.0435 206° Southwest 412 474 34,000  Level Aus ATC (RADAR)
Wed 03:11:38 AM -31.1660 156.0190 206° Southwest 413 475 34,000  Level Aus ATC (RADAR)
Wed 03:12:18 AM -31.2349 155.9794 206° Southwest 415 478 34,000  Level Aus ATC (RADAR)
Wed 03:13:23 AM -31.3472 155.9146 206° Southwest 417 480 34,000 -67 Level Aus ATC (RADAR)
Wed 03:13:47 AM -31.3904 155.8894 206° Southwest 417 480 33,900  Descending Aus ATC (RADAR)
Wed 03:14:22 AM -31.4507 155.8544 206° Southwest 417 480 34,000 75 Climbing Aus ATC (RADAR)
Wed 03:15:07 AM -31.5278 155.8100 206° Southwest 414 476 34,000  Level Aus ATC (RADAR)
Wed 03:15:42 AM -31.5878 155.7753 206° Southwest 413 475 34,000 -71 Level Aus ATC (RADAR)
Wed 03:16:32 AM -31.6733 155.7255 206° Southwest 412 474 33,900 -80 Descending Aus ATC (RADAR)
Wed 03:16:57 AM -31.7160 155.7008 206° Southwest 412 474 33,900  Level Aus ATC (RADAR)
Wed 03:17:32 AM -31.7755 155.6662 206° Southwest 411 473 33,900 167 Level Aus ATC (RADAR)
Wed 03:17:33 AM -31.7690 155.6700 206° Southwest 410 472 34,000 154 Climbing FlightAware ADS-B
Wed 03:18:11 AM -31.8240 155.6380 206° Southwest 410 472 34,000  Level FlightAware ADS-B
Wed 03:18:46 AM -31.8900 155.5990 207° Southwest 408 470 34,000  Level FlightAware ADS-B
Wed 03:19:17 AM -31.9450 155.5670 206° Southwest 407 468 34,000  Level FlightAware ADS-B
Wed 03:19:51 AM -32.0010 155.5340 207° Southwest 407 468 34,000  Level FlightAware ADS-B
Wed 03:20:27 AM -32.0711 155.4927 207° Southwest 408 470 34,000  Level Aus ATC (RADAR)
Wed 03:20:50 AM -32.0860 155.4850 207° Southwest 408 470 34,000  Level FlightAware ADS-B
Wed 03:21:26 AM -32.1380 155.4550 206° Southwest 408 470 34,000  Level FlightAware ADS-B
Wed 03:21:58 AM -32.2120 155.4100 207° Southwest 406 467 34,000  Level FlightAware ADS-B
Wed 03:22:35 AM -32.2810 155.3700 206° Southwest 405 466 34,000  Level FlightAware ADS-B
Wed 03:23:08 AM -32.3350 155.3380 207° Southwest 403 464 34,000  Level FlightAware ADS-B
Wed 03:23:41 AM -32.3978 155.3002 207° Southwest 402 463 34,000  Level Aus ATC (RADAR)
Wed 03:23:42 AM -32.3930 155.3030 207° Southwest 403 464 34,000  Level FlightAware ADS-B
Wed 03:24:19 AM -32.4550 155.2670 206° Southwest 405 466 34,000  Level FlightAware ADS-B
Wed 03:24:59 AM -32.5140 155.2320 207° Southwest 408 470 34,000  Level FlightAware ADS-B
Wed 03:25:31 AM -32.5828 155.1900 207° Southwest 409 471 34,000  Level Aus ATC (RADAR)
Wed 03:25:39 AM -32.5720 155.1980 207° Southwest 408 470 34,000  Level FlightAware ADS-B
Wed 03:26:13 AM -32.6490 155.1520 207° Southwest 409 471 34,000  Level FlightAware ADS-B
Wed 03:26:46 AM -32.7040 155.1190 207° Southwest 409 471 34,000  Level FlightAware ADS-B
Wed 03:27:16 AM -32.7591 155.0843 207° Southwest 404 465 34,000  Level Aus ATC (RADAR)
Wed 03:27:21 AM -32.7620 155.0840 207° Southwest 410 472 34,000  Level FlightAware ADS-B
Wed 03:27:56 AM -32.8264 155.0446 207° Southwest 406 467 34,000  Level Aus ATC (RADAR)
Wed 03:27:59 AM -32.8250 155.0460 207° Southwest 411 473 34,000  Level FlightAware ADS-B
Wed 03:28:35 AM -32.8840 155.0110 206° Southwest 411 473 34,000  Level FlightAware ADS-B
Wed 03:29:06 AM -32.9380 154.9790 206° Southwest 413 475 34,000  Level FlightAware ADS-B
Wed 03:29:40 AM -32.9860 154.9510 206° Southwest 412 474 34,000  Level FlightAware ADS-B
Wed 03:30:16 AM -33.0380 154.9210 206° Southwest 412 474 34,000 -91 Level FlightAware ADS-B
Wed 03:30:46 AM -33.1164 154.8705 206° Southwest 414 476 33,900  Descending Aus ATC (RADAR)
Wed 03:30:48 AM -33.1130 154.8740 206° Southwest 412 474 34,000 171 Climbing FlightAware ADS-B
Wed 03:31:21 AM -33.1759 154.8350 206° Southwest 412 474 34,000  Level Aus ATC (RADAR)
Wed 03:31:28 AM -33.1830 154.8310 206° Southwest 411 473 34,000  Level FlightAware ADS-B
Wed 03:32:03 AM -33.2400 154.7960 207° Southwest 411 473 34,000 -78 Level FlightAware ADS-B
Wed 03:32:45 AM -33.3198 154.7477 207° Southwest 411 473 33,900  Descending Aus ATC (RADAR)
Wed 03:33:00 AM -33.3410 154.7350 207° Southwest 411 473 34,000 109 Climbing FlightAware ADS-B
Wed 03:33:40 AM -33.4080 154.6950 206° Southwest 411 473 34,000  Level FlightAware ADS-B
Wed 03:34:15 AM -33.4680 154.6580 207° Southwest 410 472 34,000  Level FlightAware ADS-B
Wed 03:34:49 AM -33.5250 154.6240 206° Southwest 409 471 34,000  Level FlightAware ADS-B
Wed 03:35:24 AM -33.5840 154.5880 207° Southwest 408 470 34,000  Level FlightAware ADS-B
Wed 03:36:11 AM -33.6620 154.5400 207° Southwest 408 470 34,000  Level FlightAware ADS-B
Wed 03:36:48 AM -33.7230 154.5030 207° Southwest 407 468 34,000  Level FlightAware ADS-B
Wed 03:37:31 AM -33.7980 154.4570 207° Southwest 407 468 34,000 -78 Level FlightAware ADS-B
Wed 03:38:05 AM -33.8584 154.4194 207° Southwest 405 466 33,900  Descending Aus ATC (RADAR)
Wed 03:38:08 AM -33.8580 154.4200 207° Southwest 406 467 34,000 154 Climbing FlightAware ADS-B
Wed 03:38:44 AM -33.9190 154.3820 207° Southwest 406 467 34,000  Level FlightAware ADS-B
Wed 03:39:20 AM -33.9760 154.3470 207° Southwest 403 464 34,000 -150 Level FlightAware ADS-B
Wed 03:39:24 AM -33.9917 154.3372 207° Southwest 403 464 33,900 -154 Descending Aus ATC (RADAR)
Wed 03:39:59 AM -34.0500 154.3015 207° Southwest 403 464 33,900 162 Level Aus ATC (RADAR)
Wed 03:40:01 AM -34.0480 154.3030 207° Southwest 401 461 34,000 162 Climbing FlightAware ADS-B
Wed 03:40:36 AM -34.1040 154.2680 207° Southwest 400 460 34,000  Level FlightAware ADS-B
Wed 03:41:16 AM -34.1720 154.2260 207° Southwest 398 458 34,000  Level FlightAware ADS-B
Wed 03:41:49 AM -34.2230 154.1930 208° Southwest 390 449 34,000  Level FlightAware ADS-B
Wed 03:42:07 AM -34.2450 154.1630 228° Southwest 375 432 34,000  Level FlightAware ADS-B
Wed 03:42:37 AM -34.2610 154.1090 250° West 367 422 34,000  Level FlightAware ADS-B
Wed 03:43:16 AM -34.2530 154.0230 276° West 372 428 34,000  Level FlightAware ADS-B
Wed 03:43:46 AM -34.2460 153.9590 278° West 374 430 34,000  Level FlightAware ADS-B
Wed 03:44:21 AM -34.2380 153.8880 278° West 374 430 34,000  Level FlightAware ADS-B
Wed 03:44:56 AM -34.2300 153.8140 277° West 374 430 34,000  Level FlightAware ADS-B
Wed 03:45:36 AM -34.2210 153.7320 278° West 375 432 34,000  Level FlightAware ADS-B
Wed 03:46:06 AM -34.2140 153.6680 278° West 375 432 34,000  Level FlightAware ADS-B
Wed 03:46:41 AM -34.2050 153.5970 279° West 377 434 34,000  Level FlightAware ADS-B
Wed 03:47:21 AM -34.1960 153.5130 277° West 377 434 34,000  Level FlightAware ADS-B
Wed 03:47:56 AM -34.1870 153.4400 278° West 378 435 34,000  Level FlightAware ADS-B
Wed 03:48:35 AM -34.1780 153.3660 278° West 378 435 34,000  Level FlightAware ADS-B
Wed 03:49:10 AM -34.1690 153.2890 278° West 378 435 34,000 -82 Level FlightAware ADS-B
Wed 03:49:48 AM -34.1588 153.2025 278° West 370 426 33,900  Descending Aus ATC (RADAR)
Wed 03:49:59 AM -34.1580 153.1880 278° West 377 434 34,000 125 Climbing FlightAware ADS-B
Wed 03:50:36 AM -34.1480 153.1120 279° West 376 433 34,000  Level FlightAware ADS-B
Wed 03:51:07 AM -34.1410 153.0470 277° West 376 433 34,000  Level FlightAware ADS-B
Wed 03:51:42 AM -34.1320 152.9740 277° West 376 433 34,000 -167 Level FlightAware ADS-B
Wed 03:51:43 AM -34.1300 152.9642 277° West 367 422 33,900 -1,463 Descending Aus ATC (RADAR)
Wed 03:52:23 AM -34.1220 152.8900 278° West 367 422 33,000 -1,833 Descending FlightAware ADS-B
Wed 03:52:55 AM -34.1140 152.8230 278° West 360 414 31,700 -2,294 Descending FlightAware ADS-B
Wed 03:53:31 AM -34.1060 152.7560 278° West 360 414 30,400 -2,314 Descending FlightAware ADS-B
Wed 03:54:05 AM -34.0970 152.6850 279° West 360 414 29,000 -2,438 Descending FlightAware ADS-B
Wed 03:54:35 AM -34.0891 152.6196 279° West 353 406 27,800 -2,167 Descending Aus ATC (RADAR)
Wed 03:54:41 AM -34.0880 152.6130 279° West 357 411 27,700 -1,950 Descending FlightAware ADS-B
Wed 03:55:15 AM -34.0810 152.5500 278° West 351 404 26,500 -2,118 Descending FlightAware ADS-B
Wed 03:55:49 AM -34.0740 152.4820 277° West 346 398 25,300 -2,382 Descending FlightAware ADS-B
Wed 03:56:23 AM -34.0674 152.4124 277° West 341 392 23,800 -2,229 Descending Aus ATC (RADAR)
Wed 03:56:24 AM -34.0680 152.4160 277° West 341 392 24,000 -1,765 Climbing FlightAware ADS-B
Wed 03:56:57 AM -34.0620 152.3540 277° West 337 388 22,800 -2,500 Descending FlightAware ADS-B
Wed 03:57:00 AM -34.0618 152.3429 277° West 331 381 22,500 -2,049 Descending Aus ATC (RADAR)
Wed 03:57:38 AM -34.0550 152.2790 276° West 330 380 21,400 -1,853 Descending FlightAware ADS-B
Wed 03:58:08 AM -34.0500 152.2250 276° West 324 373 20,400 -2,438 Descending FlightAware ADS-B
Wed 03:58:10 AM -34.0494 152.2155 276° West 320 368 20,100 -2,057 Descending Aus ATC (RADAR)
Wed 03:58:43 AM -34.0440 152.1630 276° West 317 365 19,200 -1,886 Descending FlightAware ADS-B
Wed 03:58:45 AM -34.0432 152.1539 276° West 313 360 19,000 -2,000 Descending Aus ATC (RADAR)
Wed 03:59:19 AM -34.0380 152.1000 277° West 311 358 18,000 -1,800 Descending FlightAware ADS-B
Wed 03:59:55 AM -34.0320 152.0400 277° West 303 349 16,900 -1,895 Descending FlightAware ADS-B
Wed 04:00:35 AM -34.0250 151.9740 277° West 293 337 15,600 -1,865 Descending FlightAware ADS-B
Wed 04:01:09 AM -34.0200 151.9190 276° West 287 330 14,600 -1,913 Descending FlightAware ADS-B
Wed 04:01:44 AM -34.0140 151.8610 277° West 286 329 13,400 -1,703 Descending FlightAware ADS-B
Wed 04:02:23 AM -34.0080 151.8000 277° West 291 335 12,500 -1,183 Descending FlightAware ADS-B
Wed 04:02:55 AM -34.0020 151.7490 278° West 287 330 12,000 -1,043 Descending FlightAware ADS-B
Wed 04:03:32 AM -33.9970 151.6930 276° West 281 323 11,300 -1,417 Descending FlightAware ADS-B
Wed 04:04:07 AM -33.9920 151.6420 277° West 281 323 10,300 -1,957 Descending FlightAware ADS-B
Wed 04:04:18 AM -33.9900 151.6230 277° West 281 323 9,800 -2,571 Descending FlightAware ADS-B
Wed 04:04:49 AM -33.9850 151.5740 277° West 288 331 8,500 -1,787 Descending FlightAware ADS-B
Wed 04:05:05 AM -33.9820 151.5470 278° West 289 333 8,400 -514 Descending FlightAware ADS-B
Wed 04:05:24 AM -33.9780 151.5130 278° West 288 331 8,200 -462 Descending FlightAware ADS-B
Wed 04:05:44 AM -33.9750 151.4820 277° West 292 336 8,100 -667 Descending FlightAware ADS-B
Wed 04:06:09 AM -33.9710 151.4420 277° West 289 333 7,700 -1,024 Descending FlightAware ADS-B
Wed 04:06:25 AM -33.9680 151.4160 278° West 291 335 7,400 -1,043 Descending FlightAware ADS-B
Wed 04:06:55 AM -33.9830 151.3730 247° West 286 329 6,900 -1,059 Descending FlightAware ADS-B
Wed 04:07:16 AM -34.0090 151.3600 203° Southwest 286 329 6,500 -1,043 Descending FlightAware ADS-B
Wed 04:07:41 AM -34.0410 151.3490 196° South 285 328 6,100 -1,034 Descending FlightAware ADS-B
Wed 04:07:45 AM -34.0440 151.3480 195° South 286 329 6,000 -1,071 Descending FlightAware ADS-B
Wed 04:08:09 AM -34.0760 151.3540 171° South 279 321 5,600 -818 Descending FlightAware ADS-B
Wed 04:08:29 AM -34.1010 151.3610 167° South 263 303 5,400 -900 Descending FlightAware ADS-B
Wed 04:08:49 AM -34.1250 151.3670 168° South 262 302 5,000 -900 Descending FlightAware ADS-B
Wed 04:09:09 AM -34.1490 151.3740 166° South 249 287 4,800 -600 Descending FlightAware ADS-B
Wed 04:09:29 AM -34.1720 151.3780 172° South 240 276 4,600 -462 Descending FlightAware ADS-B
Wed 04:09:35 AM -34.1770 151.3770 189° South 243 280 4,600 -400 Level FlightAware ADS-B
Wed 04:09:44 AM -34.1870 151.3710 206° Southwest 231 266 4,500 -632 Descending FlightAware ADS-B
Wed 04:09:54 AM -34.1940 151.3620 227° Southwest 222 255 4,400 -286 Descending FlightAware ADS-B
Wed 04:10:05 AM -34.1970 151.3500 253° West 213 245 4,400 -400 Level FlightAware ADS-B
Wed 04:10:24 AM -34.2010 151.3260 259° West 206 237 4,200 -612 Descending FlightAware ADS-B
Wed 04:10:54 AM -34.1960 151.2960 259° West 191 220 3,900 -750 Descending FlightAware ADS-B
Wed 04:10:56 AM -34.1940 151.2929 259° West 196 226 3,800 -1,200 Descending Aus ATC (RADAR)
Wed 04:10:59 AM -34.1920 151.2930 328° Northwest 195 224 3,800 -231 Level FlightAware ADS-B
Wed 04:11:22 AM -34.1750 151.2840 336° Northwest 196 226 3,700 -439 Descending FlightAware ADS-B
Wed 04:11:40 AM -34.1580 151.2730 332° Northwest 193 222 3,500 -649 Descending FlightAware ADS-B
Wed 04:11:59 AM -34.1460 151.2590 316° Northwest 178 205 3,300 -615 Descending FlightAware ADS-B
Wed 04:12:19 AM -34.1330 151.2460 320° Northwest 179 206 3,100 -600 Descending FlightAware ADS-B
Wed 04:12:39 AM -34.1200 151.2340 323° Northwest 176 203 2,900 -667 Descending FlightAware ADS-B
Wed 04:12:55 AM -34.1070 151.2300 346° North 187 215 2,700 -1,000 Descending FlightAware ADS-B
Wed 04:13:15 AM -34.0890 151.2240 345° North 183 211 2,300 -1,029 Descending FlightAware ADS-B
Wed 04:13:30 AM -34.0760 151.2210 349° North 182 209 2,100 -686 Descending FlightAware ADS-B
Wed 04:13:50 AM -34.0600 151.2170 348° North 164 189 1,900 -900 Descending FlightAware ADS-B
Wed 04:14:10 AM -34.0450 151.2130 348° North 166 191 1,500 -1,050 Descending FlightAware ADS-B
Wed 04:14:30 AM -34.0300 151.2090 348° North 146 168 1,200 -900 Descending FlightAware ADS-B
Wed 04:14:50 AM -34.0160 151.2060 350° North 152 175 900 -900 Descending FlightAware ADS-B
Wed 04:15:10 AM -34.0020 151.2020 347° North 148 170 600 -667 Descending FlightAware ADS-B
Wed 04:15:35 AM -33.9850 151.1980 349° North 152 175 400 -600 Descending FlightAware ADS-B
Wed 04:15:50 AM -33.9740 151.1950 347° North 148 170 200 -800 Descending FlightAware ADS-B
Wed 04:16:15 AM -33.9590 151.1910 348° North 92 106 -480 Descending FlightAware ADS-B

Login

Don't have an account? Register now (free) for customized features, flight alerts, and more!